sensor_id;sensor_type;location;lat;lon;timestamp;temperature;humidity
25188;DHT22;13141;50.414;8.050;2022-11-23T00:00:36;8.70;99.90
25188;DHT22;13141;50.414;8.050;2022-11-23T00:03:02;8.70;99.90
25188;DHT22;13141;50.414;8.050;2022-11-23T00:05:29;8.70;99.90
25188;DHT22;13141;50.414;8.050;2022-11-23T00:07:54;8.70;99.90
25188;DHT22;13141;50.414;8.050;2022-11-23T00:10:20;8.70;99.90
25188;DHT22;13141;50.414;8.050;2022-11-23T00:12:46;8.70;99.90
25188;DHT22;13141;50.414;8.050;2022-11-23T00:15:13;8.70;99.90
25188;DHT22;13141;50.414;8.050;2022-11-23T00:17:39;8.70;99.90
25188;DHT22;13141;50.414;8.050;2022-11-23T00:20:06;8.70;99.90
25188;DHT22;13141;50.414;8.050;2022-11-23T00:22:32;8.70;99.90
25188;DHT22;13141;50.414;8.050;2022-11-23T00:24:57;8.70;99.90
25188;DHT22;13141;50.414;8.050;2022-11-23T00:27:23;8.60;99.90
25188;DHT22;13141;50.414;8.050;2022-11-23T00:29:48;8.60;99.90
25188;DHT22;13141;50.414;8.050;2022-11-23T00:32:14;8.60;99.90
25188;DHT22;13141;50.414;8.050;2022-11-23T00:34:40;8.60;99.90
25188;DHT22;13141;50.414;8.050;2022-11-23T00:37:05;8.60;99.90
25188;DHT22;13141;50.414;8.050;2022-11-23T00:39:31;8.70;99.90
25188;DHT22;13141;50.414;8.050;2022-11-23T00:41:56;8.60;99.90
25188;DHT22;13141;50.414;8.050;2022-11-23T00:44:22;8.60;99.90
25188;DHT22;13141;50.414;8.050;2022-11-23T00:46:47;8.60;99.90
25188;DHT22;13141;50.414;8.050;2022-11-23T00:49:13;8.60;99.90
25188;DHT22;13141;50.414;8.050;2022-11-23T00:51:38;8.60;99.90
25188;DHT22;13141;50.414;8.050;2022-11-23T00:54:05;8.60;99.90
25188;DHT22;13141;50.414;8.050;2022-11-23T00:56:32;8.60;99.90
25188;DHT22;13141;50.414;8.050;2022-11-23T00:58:59;8.60;99.90
25188;DHT22;13141;50.414;8.050;2022-11-23T01:01:30;8.60;99.90
25188;DHT22;13141;50.414;8.050;2022-11-23T01:03:59;8.60;99.90
25188;DHT22;13141;50.414;8.050;2022-11-23T01:06:32;8.60;99.90
25188;DHT22;13141;50.414;8.050;2022-11-23T01:09:01;8.50;99.90
25188;DHT22;13141;50.414;8.050;2022-11-23T01:11:29;8.60;99.90
25188;DHT22;13141;50.414;8.050;2022-11-23T01:13:55;8.50;99.90
25188;DHT22;13141;50.414;8.050;2022-11-23T01:16:27;8.50;99.90
25188;DHT22;13141;50.414;8.050;2022-11-23T01:18:54;8.50;99.90
25188;DHT22;13141;50.414;8.050;2022-11-23T01:21:19;8.50;99.90
25188;DHT22;13141;50.414;8.050;2022-11-23T01:23:45;8.50;99.90
25188;DHT22;13141;50.414;8.050;2022-11-23T01:26:11;8.50;99.90
25188;DHT22;13141;50.414;8.050;2022-11-23T01:28:38;8.50;99.90
25188;DHT22;13141;50.414;8.050;2022-11-23T01:31:10;8.50;99.90
25188;DHT22;13141;50.414;8.050;2022-11-23T01:33:35;8.50;99.90
25188;DHT22;13141;50.414;8.050;2022-11-23T01:36:16;8.50;99.90
25188;DHT22;13141;50.414;8.050;2022-11-23T01:38:42;8.50;99.90
25188;DHT22;13141;50.414;8.050;2022-11-23T01:41:12;8.50;99.90
25188;DHT22;13141;50.414;8.050;2022-11-23T01:43:38;8.50;99.90
25188;DHT22;13141;50.414;8.050;2022-11-23T01:46:04;8.50;99.90
25188;DHT22;13141;50.414;8.050;2022-11-23T01:48:37;8.50;99.90
25188;DHT22;13141;50.414;8.050;2022-11-23T01:51:05;8.40;99.90
25188;DHT22;13141;50.414;8.050;2022-11-23T01:53:33;8.40;99.90
25188;DHT22;13141;50.414;8.050;2022-11-23T01:56:01;8.40;99.90
25188;DHT22;13141;50.414;8.050;2022-11-23T01:58:28;8.50;99.90
25188;DHT22;13141;50.414;8.050;2022-11-23T02:00:56;8.50;99.90
25188;DHT22;13141;50.414;8.050;2022-11-23T02:03:22;8.50;99.90
25188;DHT22;13141;50.414;8.050;2022-11-23T02:05:52;8.50;99.90
25188;DHT22;13141;50.414;8.050;2022-11-23T02:08:24;8.50;99.90
25188;DHT22;13141;50.414;8.050;2022-11-23T02:10:50;8.40;99.90
25188;DHT22;13141;50.414;8.050;2022-11-23T02:13:16;8.40;99.90
25188;DHT22;13141;50.414;8.050;2022-11-23T02:15:41;8.50;99.90
25188;DHT22;13141;50.414;8.050;2022-11-23T02:18:17;8.40;99.90
25188;DHT22;13141;50.414;8.050;2022-11-23T02:20:43;8.40;99.90
25188;DHT22;13141;50.414;8.050;2022-11-23T02:23:26;8.40;99.90
25188;DHT22;13141;50.414;8.050;2022-11-23T02:26:10;8.40;99.90
25188;DHT22;13141;50.414;8.050;2022-11-23T02:28:56;8.40;99.90
25188;DHT22;13141;50.414;8.050;2022-11-23T02:31:23;8.40;99.90
25188;DHT22;13141;50.414;8.050;2022-11-23T02:33:48;8.40;99.90
25188;DHT22;13141;50.414;8.050;2022-11-23T02:41:53;8.50;99.90
25188;DHT22;13141;50.414;8.050;2022-11-23T02:44:39;8.60;99.90
25188;DHT22;13141;50.414;8.050;2022-11-23T02:47:07;8.50;99.90
25188;DHT22;13141;50.414;8.050;2022-11-23T02:49:33;8.50;99.90
25188;DHT22;13141;50.414;8.050;2022-11-23T02:52:00;8.40;99.90
25188;DHT22;13141;50.414;8.050;2022-11-23T02:54:26;8.40;99.90
25188;DHT22;13141;50.414;8.050;2022-11-23T02:56:52;8.40;99.90
25188;DHT22;13141;50.414;8.050;2022-11-23T02:59:17;8.50;99.90
25188;DHT22;13141;50.414;8.050;2022-11-23T03:01:43;8.40;99.90
25188;DHT22;13141;50.414;8.050;2022-11-23T03:04:09;8.40;99.90
25188;DHT22;13141;50.414;8.050;2022-11-23T03:06:35;8.40;99.90
25188;DHT22;13141;50.414;8.050;2022-11-23T03:09:01;8.40;99.90
25188;DHT22;13141;50.414;8.050;2022-11-23T03:11:26;8.40;99.90
25188;DHT22;13141;50.414;8.050;2022-11-23T03:13:52;8.50;99.90
25188;DHT22;13141;50.414;8.050;2022-11-23T03:16:17;8.50;99.90
25188;DHT22;13141;50.414;8.050;2022-11-23T03:18:43;8.50;99.90
25188;DHT22;13141;50.414;8.050;2022-11-23T03:21:08;8.50;99.90
25188;DHT22;13141;50.414;8.050;2022-11-23T03:23:35;8.50;99.90
25188;DHT22;13141;50.414;8.050;2022-11-23T03:26:01;8.40;99.90
25188;DHT22;13141;50.414;8.050;2022-11-23T03:28:27;8.30;99.90
25188;DHT22;13141;50.414;8.050;2022-11-23T03:30:53;8.30;99.90
25188;DHT22;13141;50.414;8.050;2022-11-23T03:33:18;8.30;99.90
25188;DHT22;13141;50.414;8.050;2022-11-23T03:35:44;8.30;99.90
25188;DHT22;13141;50.414;8.050;2022-11-23T03:38:10;8.20;99.90
25188;DHT22;13141;50.414;8.050;2022-11-23T03:40:36;8.30;99.90
25188;DHT22;13141;50.414;8.050;2022-11-23T03:43:01;8.30;99.90
25188;DHT22;13141;50.414;8.050;2022-11-23T03:45:27;8.20;99.90
25188;DHT22;13141;50.414;8.050;2022-11-23T03:47:53;8.20;99.90
25188;DHT22;13141;50.414;8.050;2022-11-23T03:50:18;8.20;99.90
25188;DHT22;13141;50.414;8.050;2022-11-23T03:52:44;8.20;99.90
25188;DHT22;13141;50.414;8.050;2022-11-23T03:55:09;8.20;99.90
25188;DHT22;13141;50.414;8.050;2022-11-23T03:57:35;8.20;99.90
25188;DHT22;13141;50.414;8.050;2022-11-23T04:00:01;8.20;99.90
25188;DHT22;13141;50.414;8.050;2022-11-23T04:02:26;8.30;99.90
25188;DHT22;13141;50.414;8.050;2022-11-23T04:04:52;8.30;99.90
25188;DHT22;13141;50.414;8.050;2022-11-23T04:07:18;8.30;99.90
25188;DHT22;13141;50.414;8.050;2022-11-23T04:09:43;8.30;99.90
25188;DHT22;13141;50.414;8.050;2022-11-23T04:12:09;8.30;99.90
25188;DHT22;13141;50.414;8.050;2022-11-23T04:14:35;8.40;99.90
25188;DHT22;13141;50.414;8.050;2022-11-23T04:17:00;8.40;99.90
25188;DHT22;13141;50.414;8.050;2022-11-23T04:19:27;8.30;99.90
25188;DHT22;13141;50.414;8.050;2022-11-23T04:21:53;8.30;99.90
25188;DHT22;13141;50.414;8.050;2022-11-23T04:24:18;8.40;99.90
25188;DHT22;13141;50.414;8.050;2022-11-23T04:26:44;8.40;99.90
25188;DHT22;13141;50.414;8.050;2022-11-23T04:29:09;8.40;99.90
25188;DHT22;13141;50.414;8.050;2022-11-23T04:31:35;8.40;99.90
25188;DHT22;13141;50.414;8.050;2022-11-23T04:34:00;8.40;99.90
25188;DHT22;13141;50.414;8.050;2022-11-23T04:36:26;8.30;99.90
25188;DHT22;13141;50.414;8.050;2022-11-23T04:38:52;8.30;99.90
25188;DHT22;13141;50.414;8.050;2022-11-23T04:41:17;8.30;99.90
25188;DHT22;13141;50.414;8.050;2022-11-23T04:43:43;8.40;99.90
25188;DHT22;13141;50.414;8.050;2022-11-23T04:46:10;8.30;99.90
25188;DHT22;13141;50.414;8.050;2022-11-23T04:48:36;8.40;99.90
25188;DHT22;13141;50.414;8.050;2022-11-23T04:51:01;8.40;99.90
25188;DHT22;13141;50.414;8.050;2022-11-23T04:53:27;8.40;99.90
25188;DHT22;13141;50.414;8.050;2022-11-23T04:55:53;8.40;99.90
25188;DHT22;13141;50.414;8.050;2022-11-23T04:58:18;8.40;99.90
25188;DHT22;13141;50.414;8.050;2022-11-23T05:00:44;8.40;99.90
25188;DHT22;13141;50.414;8.050;2022-11-23T05:03:09;8.40;99.90
25188;DHT22;13141;50.414;8.050;2022-11-23T05:05:38;8.40;99.90
25188;DHT22;13141;50.414;8.050;2022-11-23T05:08:04;8.40;99.90
25188;DHT22;13141;50.414;8.050;2022-11-23T05:10:30;8.40;99.90
25188;DHT22;13141;50.414;8.050;2022-11-23T05:12:55;8.40;99.90
25188;DHT22;13141;50.414;8.050;2022-11-23T05:15:21;8.30;99.90
25188;DHT22;13141;50.414;8.050;2022-11-23T05:17:46;8.30;99.90
25188;DHT22;13141;50.414;8.050;2022-11-23T05:20:12;8.30;99.90
25188;DHT22;13141;50.414;8.050;2022-11-23T05:22:38;8.40;99.90
25188;DHT22;13141;50.414;8.050;2022-11-23T05:25:04;8.30;99.90
25188;DHT22;13141;50.414;8.050;2022-11-23T05:27:29;8.30;99.90
25188;DHT22;13141;50.414;8.050;2022-11-23T05:29:55;8.30;99.90
25188;DHT22;13141;50.414;8.050;2022-11-23T05:32:20;8.40;99.90
25188;DHT22;13141;50.414;8.050;2022-11-23T05:34:46;8.40;99.90
25188;DHT22;13141;50.414;8.050;2022-11-23T05:37:11;8.40;99.90
25188;DHT22;13141;50.414;8.050;2022-11-23T05:39:37;8.40;99.90
25188;DHT22;13141;50.414;8.050;2022-11-23T05:42:03;8.50;99.90
25188;DHT22;13141;50.414;8.050;2022-11-23T05:44:29;8.60;99.90
25188;DHT22;13141;50.414;8.050;2022-11-23T05:46:54;8.10;99.90
25188;DHT22;13141;50.414;8.050;2022-11-23T05:49:20;8.40;99.90
25188;DHT22;13141;50.414;8.050;2022-11-23T05:51:45;8.50;99.90
25188;DHT22;13141;50.414;8.050;2022-11-23T05:54:11;8.40;99.90
25188;DHT22;13141;50.414;8.050;2022-11-23T05:56:36;8.40;99.90
25188;DHT22;13141;50.414;8.050;2022-11-23T05:59:02;8.40;99.90
25188;DHT22;13141;50.414;8.050;2022-11-23T06:01:29;8.40;99.90
25188;DHT22;13141;50.414;8.050;2022-11-23T06:03:56;8.40;99.90
25188;DHT22;13141;50.414;8.050;2022-11-23T06:06:21;8.40;99.90
25188;DHT22;13141;50.414;8.050;2022-11-23T06:08:47;8.40;99.90
25188;DHT22;13141;50.414;8.050;2022-11-23T06:11:13;8.40;99.90
25188;DHT22;13141;50.414;8.050;2022-11-23T06:13:39;8.40;99.90
25188;DHT22;13141;50.414;8.050;2022-11-23T06:16:05;8.40;99.90
25188;DHT22;13141;50.414;8.050;2022-11-23T06:18:30;8.40;99.90
25188;DHT22;13141;50.414;8.050;2022-11-23T06:20:59;8.30;99.90
25188;DHT22;13141;50.414;8.050;2022-11-23T06:23:25;8.10;99.90
25188;DHT22;13141;50.414;8.050;2022-11-23T06:25:51;8.30;99.90
25188;DHT22;13141;50.414;8.050;2022-11-23T06:28:16;8.30;99.90
25188;DHT22;13141;50.414;8.050;2022-11-23T06:30:42;8.30;99.90
25188;DHT22;13141;50.414;8.050;2022-11-23T06:33:08;8.30;99.90
25188;DHT22;13141;50.414;8.050;2022-11-23T06:35:34;8.30;99.90
25188;DHT22;13141;50.414;8.050;2022-11-23T06:38:00;8.20;99.90
25188;DHT22;13141;50.414;8.050;2022-11-23T06:40:25;8.20;99.90
25188;DHT22;13141;50.414;8.050;2022-11-23T06:42:59;8.30;99.90
25188;DHT22;13141;50.414;8.050;2022-11-23T06:45:25;8.30;99.90
25188;DHT22;13141;50.414;8.050;2022-11-23T06:47:53;8.30;99.90
25188;DHT22;13141;50.414;8.050;2022-11-23T06:50:19;8.30;99.90
25188;DHT22;13141;50.414;8.050;2022-11-23T06:52:45;8.40;99.90
25188;DHT22;13141;50.414;8.050;2022-11-23T06:55:11;8.40;99.90
25188;DHT22;13141;50.414;8.050;2022-11-23T06:57:37;8.40;99.90
25188;DHT22;13141;50.414;8.050;2022-11-23T07:00:03;8.40;99.90
25188;DHT22;13141;50.414;8.050;2022-11-23T07:02:29;8.40;99.90
25188;DHT22;13141;50.414;8.050;2022-11-23T07:04:55;8.30;99.90
25188;DHT22;13141;50.414;8.050;2022-11-23T07:07:20;8.30;99.90
25188;DHT22;13141;50.414;8.050;2022-11-23T07:09:46;8.40;99.90
25188;DHT22;13141;50.414;8.050;2022-11-23T07:12:12;8.30;99.90
25188;DHT22;13141;50.414;8.050;2022-11-23T07:14:37;8.30;99.90
25188;DHT22;13141;50.414;8.050;2022-11-23T07:17:03;8.40;99.90
25188;DHT22;13141;50.414;8.050;2022-11-23T07:19:28;8.40;99.90
25188;DHT22;13141;50.414;8.050;2022-11-23T07:21:54;8.40;99.90
25188;DHT22;13141;50.414;8.050;2022-11-23T07:24:19;8.40;99.90
25188;DHT22;13141;50.414;8.050;2022-11-23T07:26:45;8.40;99.90
25188;DHT22;13141;50.414;8.050;2022-11-23T07:29:10;8.40;99.90
25188;DHT22;13141;50.414;8.050;2022-11-23T07:31:36;8.50;99.90
25188;DHT22;13141;50.414;8.050;2022-11-23T07:34:01;8.50;99.90
25188;DHT22;13141;50.414;8.050;2022-11-23T07:36:27;8.50;99.90
25188;DHT22;13141;50.414;8.050;2022-11-23T07:38:52;8.50;99.90
25188;DHT22;13141;50.414;8.050;2022-11-23T07:41:18;8.50;99.90
25188;DHT22;13141;50.414;8.050;2022-11-23T07:43:44;8.50;99.90
25188;DHT22;13141;50.414;8.050;2022-11-23T07:46:09;8.50;99.90
25188;DHT22;13141;50.414;8.050;2022-11-23T07:48:35;8.60;99.90
25188;DHT22;13141;50.414;8.050;2022-11-23T07:51:00;8.60;99.90
25188;DHT22;13141;50.414;8.050;2022-11-23T07:53:26;8.50;99.90
25188;DHT22;13141;50.414;8.050;2022-11-23T07:55:57;8.50;99.90
25188;DHT22;13141;50.414;8.050;2022-11-23T07:58:23;8.50;99.90
25188;DHT22;13141;50.414;8.050;2022-11-23T08:00:49;8.60;99.90
25188;DHT22;13141;50.414;8.050;2022-11-23T08:03:14;8.60;99.90
25188;DHT22;13141;50.414;8.050;2022-11-23T08:05:40;8.60;99.90
25188;DHT22;13141;50.414;8.050;2022-11-23T08:08:05;8.60;99.90
25188;DHT22;13141;50.414;8.050;2022-11-23T08:10:31;8.50;99.90
25188;DHT22;13141;50.414;8.050;2022-11-23T08:13:02;8.60;99.90
25188;DHT22;13141;50.414;8.050;2022-11-23T08:15:28;8.60;99.90
25188;DHT22;13141;50.414;8.050;2022-11-23T08:17:58;8.60;99.90
25188;DHT22;13141;50.414;8.050;2022-11-23T08:20:25;8.60;99.90
25188;DHT22;13141;50.414;8.050;2022-11-23T08:22:51;8.60;99.90
25188;DHT22;13141;50.414;8.050;2022-11-23T08:25:23;8.70;99.90
25188;DHT22;13141;50.414;8.050;2022-11-23T08:27:57;8.70;99.90
25188;DHT22;13141;50.414;8.050;2022-11-23T08:30:25;8.70;99.90
25188;DHT22;13141;50.414;8.050;2022-11-23T08:32:51;8.70;99.90
25188;DHT22;13141;50.414;8.050;2022-11-23T08:35:17;8.70;99.90
25188;DHT22;13141;50.414;8.050;2022-11-23T08:37:42;8.80;99.90
25188;DHT22;13141;50.414;8.050;2022-11-23T08:40:08;8.80;99.90
25188;DHT22;13141;50.414;8.050;2022-11-23T08:42:34;8.80;99.90
25188;DHT22;13141;50.414;8.050;2022-11-23T08:45:00;8.90;99.90
25188;DHT22;13141;50.414;8.050;2022-11-23T08:47:27;8.90;99.90
25188;DHT22;13141;50.414;8.050;2022-11-23T08:49:53;8.90;99.90
25188;DHT22;13141;50.414;8.050;2022-11-23T08:52:18;9.00;99.90
25188;DHT22;13141;50.414;8.050;2022-11-23T08:54:44;9.10;99.90
25188;DHT22;13141;50.414;8.050;2022-11-23T08:57:09;9.10;99.90
25188;DHT22;13141;50.414;8.050;2022-11-23T08:59:35;9.20;99.90
25188;DHT22;13141;50.414;8.050;2022-11-23T09:02:01;9.40;99.90
25188;DHT22;13141;50.414;8.050;2022-11-23T09:04:26;9.60;99.90
25188;DHT22;13141;50.414;8.050;2022-11-23T09:06:53;9.80;99.90
25188;DHT22;13141;50.414;8.050;2022-11-23T09:09:19;9.80;99.90
25188;DHT22;13141;50.414;8.050;2022-11-23T09:11:44;10.00;99.90
25188;DHT22;13141;50.414;8.050;2022-11-23T09:14:10;10.10;99.90
25188;DHT22;13141;50.414;8.050;2022-11-23T09:16:35;10.30;99.90
25188;DHT22;13141;50.414;8.050;2022-11-23T09:19:01;10.40;99.90
25188;DHT22;13141;50.414;8.050;2022-11-23T09:21:27;10.60;99.90
25188;DHT22;13141;50.414;8.050;2022-11-23T09:23:57;10.40;99.90
25188;DHT22;13141;50.414;8.050;2022-11-23T09:26:23;10.70;99.90
25188;DHT22;13141;50.414;8.050;2022-11-23T09:28:49;11.00;99.90
25188;DHT22;13141;50.414;8.050;2022-11-23T09:31:15;11.20;99.90
25188;DHT22;13141;50.414;8.050;2022-11-23T09:33:41;11.10;99.90
25188;DHT22;13141;50.414;8.050;2022-11-23T09:36:07;11.00;99.90
25188;DHT22;13141;50.414;8.050;2022-11-23T09:38:32;10.90;99.90
25188;DHT22;13141;50.414;8.050;2022-11-23T09:41:11;10.80;99.90
25188;DHT22;13141;50.414;8.050;2022-11-23T09:43:51;10.70;99.90
25188;DHT22;13141;50.414;8.050;2022-11-23T09:46:46;10.90;99.90
25188;DHT22;13141;50.414;8.050;2022-11-23T09:52:13;10.90;99.90
25188;DHT22;13141;50.414;8.050;2022-11-23T09:54:41;10.90;99.90
25188;DHT22;13141;50.414;8.050;2022-11-23T09:57:11;11.00;99.90
25188;DHT22;13141;50.414;8.050;2022-11-23T09:59:43;11.20;99.90
25188;DHT22;13141;50.414;8.050;2022-11-23T10:02:32;11.30;99.90
25188;DHT22;13141;50.414;8.050;2022-11-23T10:05:00;11.70;99.90
25188;DHT22;13141;50.414;8.050;2022-11-23T10:07:58;11.80;99.90
25188;DHT22;13141;50.414;8.050;2022-11-23T10:19:46;12.20;99.90
25188;DHT22;13141;50.414;8.050;2022-11-23T10:26:41;12.50;99.90
25188;DHT22;13141;50.414;8.050;2022-11-23T10:29:15;12.80;99.90
25188;DHT22;13141;50.414;8.050;2022-11-23T10:31:46;12.40;99.90
25188;DHT22;13141;50.414;8.050;2022-11-23T10:34:15;12.70;99.90
25188;DHT22;13141;50.414;8.050;2022-11-23T10:36:41;13.00;99.90
25188;DHT22;13141;50.414;8.050;2022-11-23T10:39:36;13.00;99.90
25188;DHT22;13141;50.414;8.050;2022-11-23T10:42:13;13.20;99.90
25188;DHT22;13141;50.414;8.050;2022-11-23T10:44:43;13.30;99.90
25188;DHT22;13141;50.414;8.050;2022-11-23T10:50:00;12.40;99.90
25188;DHT22;13141;50.414;8.050;2022-11-23T10:52:30;11.90;99.90
25188;DHT22;13141;50.414;8.050;2022-11-23T10:54:57;11.70;99.90
25188;DHT22;13141;50.414;8.050;2022-11-23T10:57:31;11.60;99.90
25188;DHT22;13141;50.414;8.050;2022-11-23T11:00:12;11.50;99.90
25188;DHT22;13141;50.414;8.050;2022-11-23T11:02:46;11.50;99.90
25188;DHT22;13141;50.414;8.050;2022-11-23T11:05:34;11.50;99.90
25188;DHT22;13141;50.414;8.050;2022-11-23T11:08:11;11.50;99.90
25188;DHT22;13141;50.414;8.050;2022-11-23T11:10:43;11.70;99.90
25188;DHT22;13141;50.414;8.050;2022-11-23T11:15:59;12.20;99.90
25188;DHT22;13141;50.414;8.050;2022-11-23T11:18:27;12.30;99.90
25188;DHT22;13141;50.414;8.050;2022-11-23T11:23:50;12.80;99.40
25188;DHT22;13141;50.414;8.050;2022-11-23T11:26:24;13.00;99.20
25188;DHT22;13141;50.414;8.050;2022-11-23T11:29:03;12.90;99.00
25188;DHT22;13141;50.414;8.050;2022-11-23T11:31:38;12.90;99.10
25188;DHT22;13141;50.414;8.050;2022-11-23T11:34:21;12.80;99.20
25188;DHT22;13141;50.414;8.050;2022-11-23T11:36:55;12.80;99.60
25188;DHT22;13141;50.414;8.050;2022-11-23T11:39:31;12.90;99.20
25188;DHT22;13141;50.414;8.050;2022-11-23T11:42:01;13.20;99.30
25188;DHT22;13141;50.414;8.050;2022-11-23T11:44:32;13.40;99.10
25188;DHT22;13141;50.414;8.050;2022-11-23T11:47:08;13.40;98.90
25188;DHT22;13141;50.414;8.050;2022-11-23T11:49:42;13.60;99.60
25188;DHT22;13141;50.414;8.050;2022-11-23T11:52:17;13.60;99.30
25188;DHT22;13141;50.414;8.050;2022-11-23T11:54:50;13.10;98.90
25188;DHT22;13141;50.414;8.050;2022-11-23T11:57:32;12.80;99.10
25188;DHT22;13141;50.414;8.050;2022-11-23T12:00:00;13.00;99.50
25188;DHT22;13141;50.414;8.050;2022-11-23T12:02:54;13.20;98.80
25188;DHT22;13141;50.414;8.050;2022-11-23T12:05:29;13.60;99.40
25188;DHT22;13141;50.414;8.050;2022-11-23T12:08:12;13.80;98.90
25188;DHT22;13141;50.414;8.050;2022-11-23T12:10:53;14.30;98.70
25188;DHT22;13141;50.414;8.050;2022-11-23T12:13:29;14.10;98.10
25188;DHT22;13141;50.414;8.050;2022-11-23T12:24:46;13.70;98.50
25188;DHT22;13141;50.414;8.050;2022-11-23T12:27:24;14.00;97.70
25188;DHT22;13141;50.414;8.050;2022-11-23T12:30:13;13.90;98.20
25188;DHT22;13141;50.414;8.050;2022-11-23T12:40:55;12.60;99.90
25188;DHT22;13141;50.414;8.050;2022-11-23T12:43:30;12.70;99.80
25188;DHT22;13141;50.414;8.050;2022-11-23T12:51:35;12.30;99.60
25188;DHT22;13141;50.414;8.050;2022-11-23T12:57:03;11.90;99.90
25188;DHT22;13141;50.414;8.050;2022-11-23T12:59:55;11.80;99.90
25188;DHT22;13141;50.414;8.050;2022-11-23T13:10:53;12.30;99.90
25188;DHT22;13141;50.414;8.050;2022-11-23T13:13:46;12.30;99.90
25188;DHT22;13141;50.414;8.050;2022-11-23T13:16:57;12.20;99.70
25188;DHT22;13141;50.414;8.050;2022-11-23T13:21:47;12.80;99.40
25188;DHT22;13141;50.414;8.050;2022-11-23T13:24:32;12.70;98.90
25188;DHT22;13141;50.414;8.050;2022-11-23T13:34:58;12.90;98.90
25188;DHT22;13141;50.414;8.050;2022-11-23T13:37:23;13.10;98.80
25188;DHT22;13141;50.414;8.050;2022-11-23T13:42:15;13.10;98.80
25188;DHT22;13141;50.414;8.050;2022-11-23T13:44:41;13.00;98.00
25188;DHT22;13141;50.414;8.050;2022-11-23T13:49:41;13.20;98.70
25188;DHT22;13141;50.414;8.050;2022-11-23T13:57:32;13.40;98.70
25188;DHT22;13141;50.414;8.050;2022-11-23T14:09:25;13.20;99.10
25188;DHT22;13141;50.414;8.050;2022-11-23T14:15:06;12.90;98.90
25188;DHT22;13141;50.414;8.050;2022-11-23T14:31:48;12.00;99.60
25188;DHT22;13141;50.414;8.050;2022-11-23T14:40:04;11.70;99.90
25188;DHT22;13141;50.414;8.050;2022-11-23T14:42:34;11.60;99.90
25188;DHT22;13141;50.414;8.050;2022-11-23T14:45:05;11.60;99.90
25188;DHT22;13141;50.414;8.050;2022-11-23T14:47:31;11.40;99.90
25188;DHT22;13141;50.414;8.050;2022-11-23T14:49:57;11.40;99.90
25188;DHT22;13141;50.414;8.050;2022-11-23T14:52:26;11.20;99.90
25188;DHT22;13141;50.414;8.050;2022-11-23T14:54:54;11.20;99.90
25188;DHT22;13141;50.414;8.050;2022-11-23T14:57:22;11.20;99.90
25188;DHT22;13141;50.414;8.050;2022-11-23T14:59:53;11.10;99.90
25188;DHT22;13141;50.414;8.050;2022-11-23T15:02:35;11.00;99.90
25188;DHT22;13141;50.414;8.050;2022-11-23T15:05:17;10.90;99.90
25188;DHT22;13141;50.414;8.050;2022-11-23T15:11:06;10.80;99.90
25188;DHT22;13141;50.414;8.050;2022-11-23T15:13:54;10.60;99.90
25188;DHT22;13141;50.414;8.050;2022-11-23T15:16:26;10.70;99.90
25188;DHT22;13141;50.414;8.050;2022-11-23T15:18:52;10.60;99.90
25188;DHT22;13141;50.414;8.050;2022-11-23T15:21:23;10.60;99.90
25188;DHT22;13141;50.414;8.050;2022-11-23T15:23:54;10.60;99.90
25188;DHT22;13141;50.414;8.050;2022-11-23T15:26:30;10.50;99.90
25188;DHT22;13141;50.414;8.050;2022-11-23T15:28:57;10.50;99.90
25188;DHT22;13141;50.414;8.050;2022-11-23T15:31:33;10.40;99.90
25188;DHT22;13141;50.414;8.050;2022-11-23T15:34:12;10.40;99.90
25188;DHT22;13141;50.414;8.050;2022-11-23T15:36:39;10.50;99.90
25188;DHT22;13141;50.414;8.050;2022-11-23T15:39:05;10.50;99.90
25188;DHT22;13141;50.414;8.050;2022-11-23T15:41:35;10.40;99.90
25188;DHT22;13141;50.414;8.050;2022-11-23T15:46:46;10.30;99.90
25188;DHT22;13141;50.414;8.050;2022-11-23T15:49:14;10.20;99.90
25188;DHT22;13141;50.414;8.050;2022-11-23T15:51:41;10.30;99.90
25188;DHT22;13141;50.414;8.050;2022-11-23T15:54:21;10.20;99.90
25188;DHT22;13141;50.414;8.050;2022-11-23T15:56:49;10.20;99.90
25188;DHT22;13141;50.414;8.050;2022-11-23T16:02:04;10.30;99.90
25188;DHT22;13141;50.414;8.050;2022-11-23T16:04:36;10.30;99.90
25188;DHT22;13141;50.414;8.050;2022-11-23T16:07:24;10.30;99.90
25188;DHT22;13141;50.414;8.050;2022-11-23T16:12:33;10.40;99.90
25188;DHT22;13141;50.414;8.050;2022-11-23T16:20:54;10.60;99.90
25188;DHT22;13141;50.414;8.050;2022-11-23T16:23:54;10.60;99.90
25188;DHT22;13141;50.414;8.050;2022-11-23T16:26:31;10.70;99.90
25188;DHT22;13141;50.414;8.050;2022-11-23T16:28:58;10.70;99.90
25188;DHT22;13141;50.414;8.050;2022-11-23T16:31:29;10.70;99.90
25188;DHT22;13141;50.414;8.050;2022-11-23T16:33:55;10.70;99.90
25188;DHT22;13141;50.414;8.050;2022-11-23T16:36:21;10.70;99.90
25188;DHT22;13141;50.414;8.050;2022-11-23T16:38:46;10.70;99.90
25188;DHT22;13141;50.414;8.050;2022-11-23T16:41:12;10.70;99.90
25188;DHT22;13141;50.414;8.050;2022-11-23T16:43:38;10.70;99.90
25188;DHT22;13141;50.414;8.050;2022-11-23T16:46:03;10.70;99.90
25188;DHT22;13141;50.414;8.050;2022-11-23T16:48:42;10.70;99.90
25188;DHT22;13141;50.414;8.050;2022-11-23T16:51:11;10.70;99.90
25188;DHT22;13141;50.414;8.050;2022-11-23T16:53:41;10.70;99.90
25188;DHT22;13141;50.414;8.050;2022-11-23T16:56:08;10.70;99.90
25188;DHT22;13141;50.414;8.050;2022-11-23T16:58:34;10.70;99.90
25188;DHT22;13141;50.414;8.050;2022-11-23T17:01:01;10.70;99.90
25188;DHT22;13141;50.414;8.050;2022-11-23T17:03:27;10.70;99.90
25188;DHT22;13141;50.414;8.050;2022-11-23T17:05:52;10.60;99.90
25188;DHT22;13141;50.414;8.050;2022-11-23T17:08:18;10.60;99.90
25188;DHT22;13141;50.414;8.050;2022-11-23T17:10:43;10.60;99.90
25188;DHT22;13141;50.414;8.050;2022-11-23T17:13:13;10.50;99.90
25188;DHT22;13141;50.414;8.050;2022-11-23T17:15:42;10.50;99.90
25188;DHT22;13141;50.414;8.050;2022-11-23T17:18:13;10.30;99.90
25188;DHT22;13141;50.414;8.050;2022-11-23T17:20:39;10.10;99.90
25188;DHT22;13141;50.414;8.050;2022-11-23T17:23:05;9.80;99.90
25188;DHT22;13141;50.414;8.050;2022-11-23T17:25:32;9.70;99.90
25188;DHT22;13141;50.414;8.050;2022-11-23T17:27:57;9.60;99.90
25188;DHT22;13141;50.414;8.050;2022-11-23T17:30:25;9.40;99.90
25188;DHT22;13141;50.414;8.050;2022-11-23T17:32:52;9.30;99.90
25188;DHT22;13141;50.414;8.050;2022-11-23T17:35:17;9.10;99.90
25188;DHT22;13141;50.414;8.050;2022-11-23T17:37:43;9.10;99.90
25188;DHT22;13141;50.414;8.050;2022-11-23T17:42:39;8.90;99.90
25188;DHT22;13141;50.414;8.050;2022-11-23T17:45:05;8.90;99.90
25188;DHT22;13141;50.414;8.050;2022-11-23T17:47:31;8.90;99.90
25188;DHT22;13141;50.414;8.050;2022-11-23T17:49:56;8.90;99.90
25188;DHT22;13141;50.414;8.050;2022-11-23T17:52:23;8.80;99.90
25188;DHT22;13141;50.414;8.050;2022-11-23T17:54:49;8.90;99.90
25188;DHT22;13141;50.414;8.050;2022-11-23T17:57:17;8.90;99.90
25188;DHT22;13141;50.414;8.050;2022-11-23T17:59:43;8.90;99.90
25188;DHT22;13141;50.414;8.050;2022-11-23T18:02:09;8.70;99.90
25188;DHT22;13141;50.414;8.050;2022-11-23T18:04:35;8.70;99.90
25188;DHT22;13141;50.414;8.050;2022-11-23T18:07:01;8.60;99.90